sensor_id;sensor_type;location;lat;lon;timestamp;pressure;altitude;pressure_sealevel;temperature;humidity
64362;BME280;50685;53.346;-6.296;2022-09-30T01:06:48;100676.34;;;11.57;78.31
64362;BME280;50685;53.346;-6.296;2022-09-30T02:48:58;100434.81;;;11.88;74.65
64362;BME280;50685;53.346;-6.296;2022-09-30T03:01:36;100413.13;;;12.05;73.38
64362;BME280;50685;53.346;-6.296;2022-09-30T03:18:07;100379.25;;;12.14;71.07
64362;BME280;50685;53.346;-6.296;2022-09-30T03:20:45;100385.47;;;12.14;70.82
64362;BME280;50685;53.346;-6.296;2022-09-30T04:02:37;100283.16;;;12.28;68.54
64362;BME280;50685;53.346;-6.296;2022-09-30T04:05:38;100256.50;;;12.31;68.31
64362;BME280;50685;53.346;-6.296;2022-09-30T04:16:55;100233.34;;;12.03;71.49
64362;BME280;50685;53.346;-6.296;2022-09-30T04:19:30;100237.06;;;11.96;71.86
64362;BME280;50685;53.346;-6.296;2022-09-30T04:22:15;100243.44;;;11.90;71.73
64362;BME280;50685;53.346;-6.296;2022-09-30T04:40:31;100201.31;;;11.74;73.73
64362;BME280;50685;53.346;-6.296;2022-09-30T04:42:59;100200.53;;;11.72;74.04
64362;BME280;50685;53.346;-6.296;2022-09-30T04:55:00;100121.00;;;11.66;74.94
64362;BME280;50685;53.346;-6.296;2022-09-30T05:00:18;100133.28;;;11.70;75.31
64362;BME280;50685;53.346;-6.296;2022-09-30T05:06:01;100108.41;;;11.73;76.04
64362;BME280;50685;53.346;-6.296;2022-09-30T05:08:37;100092.41;;;11.74;76.19
64362;BME280;50685;53.346;-6.296;2022-09-30T05:11:16;100092.38;;;11.76;76.48
64362;BME280;50685;53.346;-6.296;2022-09-30T05:17:01;100059.56;;;11.77;77.09
64362;BME280;50685;53.346;-6.296;2022-09-30T05:19:45;100049.78;;;11.79;77.63
64362;BME280;50685;53.346;-6.296;2022-09-30T05:40:46;99990.34;;;11.82;80.08
64362;BME280;50685;53.346;-6.296;2022-09-30T05:55:49;99922.59;;;11.97;79.65
64362;BME280;50685;53.346;-6.296;2022-09-30T05:58:35;99917.19;;;12.00;80.07
64362;BME280;50685;53.346;-6.296;2022-09-30T06:07:05;99878.81;;;12.09;80.54
64362;BME280;50685;53.346;-6.296;2022-09-30T06:12:39;99810.16;;;11.95;80.36
64362;BME280;50685;53.346;-6.296;2022-09-30T06:18:40;99798.81;;;12.16;82.36
64362;BME280;50685;53.346;-6.296;2022-09-30T06:27:40;99795.88;;;12.24;84.08
64362;BME280;50685;53.346;-6.296;2022-09-30T06:36:35;99798.56;;;12.24;85.14
64362;BME280;50685;53.346;-6.296;2022-09-30T07:27:53;99638.75;;;12.76;87.42
64362;BME280;50685;53.346;-6.296;2022-09-30T07:39:50;99632.28;;;12.83;87.41
64362;BME280;50685;53.346;-6.296;2022-09-30T07:54:47;99559.09;;;13.14;86.75
64362;BME280;50685;53.346;-6.296;2022-09-30T07:57:33;99533.22;;;13.18;87.20
64362;BME280;50685;53.346;-6.296;2022-09-30T08:15:56;99440.88;;;13.18;89.43
64362;BME280;50685;53.346;-6.296;2022-09-30T08:24:26;99359.03;;;13.24;89.85
64362;BME280;50685;53.346;-6.296;2022-09-30T08:53:33;99282.63;;;13.62;89.83
64362;BME280;50685;53.346;-6.296;2022-09-30T08:56:03;99240.72;;;13.66;90.10
64362;BME280;50685;53.346;-6.296;2022-09-30T08:58:36;99236.00;;;13.71;89.17
64362;BME280;50685;53.346;-6.296;2022-09-30T09:07:38;99198.72;;;13.89;87.87
64362;BME280;50685;53.346;-6.296;2022-09-30T09:27:48;99173.72;;;14.57;85.34
64362;BME280;50685;53.346;-6.296;2022-09-30T09:33:34;99203.44;;;14.67;85.28
64362;BME280;50685;53.346;-6.296;2022-09-30T09:48:40;99169.56;;;14.35;92.15
64362;BME280;50685;53.346;-6.296;2022-09-30T09:53:51;99157.00;;;14.37;92.17
64362;BME280;50685;53.346;-6.296;2022-09-30T09:56:49;99143.09;;;14.48;91.60
64362;BME280;50685;53.346;-6.296;2022-09-30T10:18:03;99115.28;;;14.52;92.29
64362;BME280;50685;53.346;-6.296;2022-09-30T10:41:43;99044.09;;;14.85;92.00
64362;BME280;50685;53.346;-6.296;2022-09-30T10:56:14;99038.25;;;15.08;90.94
64362;BME280;50685;53.346;-6.296;2022-09-30T11:02:24;99006.41;;;15.20;91.05
64362;BME280;50685;53.346;-6.296;2022-09-30T11:07:52;98998.59;;;15.31;89.70
64362;BME280;50685;53.346;-6.296;2022-09-30T11:21:41;99017.31;;;15.60;89.14
64362;BME280;50685;53.346;-6.296;2022-09-30T12:38:36;99077.03;;;15.59;91.92
64362;BME280;50685;53.346;-6.296;2022-09-30T13:05:54;99134.91;;;17.16;75.05
64362;BME280;50685;53.346;-6.296;2022-09-30T13:11:44;99116.88;;;17.84;71.59
64362;BME280;50685;53.346;-6.296;2022-09-30T13:17:25;99118.69;;;18.35;68.08
64362;BME280;50685;53.346;-6.296;2022-09-30T13:19:51;99108.97;;;18.45;66.20
64362;BME280;50685;53.346;-6.296;2022-09-30T13:28:37;99128.28;;;19.12;63.37
64362;BME280;50685;53.346;-6.296;2022-09-30T13:31:14;99149.44;;;18.92;62.65
64362;BME280;50685;53.346;-6.296;2022-09-30T13:34:30;99141.81;;;18.86;62.39
64362;BME280;50685;53.346;-6.296;2022-09-30T13:36:39;99149.75;;;19.01;61.61
64362;BME280;50685;53.346;-6.296;2022-09-30T13:41:43;99151.00;;;19.32;60.19
64362;BME280;50685;53.346;-6.296;2022-09-30T13:46:58;99153.19;;;18.53;63.18
64362;BME280;50685;53.346;-6.296;2022-09-30T14:20:02;99172.84;;;19.74;55.39
64362;BME280;50685;53.346;-6.296;2022-09-30T14:22:42;99150.97;;;19.68;54.56
64362;BME280;50685;53.346;-6.296;2022-09-30T14:25:14;99164.44;;;19.79;55.18
64362;BME280;50685;53.346;-6.296;2022-09-30T14:32:55;99194.25;;;19.76;54.63
64362;BME280;50685;53.346;-6.296;2022-09-30T14:35:23;99170.38;;;19.60;53.29
64362;BME280;50685;53.346;-6.296;2022-09-30T14:40:52;99193.13;;;19.32;53.60
64362;BME280;50685;53.346;-6.296;2022-09-30T14:43:21;99190.63;;;19.53;52.82
64362;BME280;50685;53.346;-6.296;2022-09-30T14:45:57;99149.31;;;19.54;51.02
64362;BME280;50685;53.346;-6.296;2022-09-30T14:48:28;99188.00;;;19.64;50.77
64362;BME280;50685;53.346;-6.296;2022-09-30T15:03:14;99160.34;;;19.62;48.71
64362;BME280;50685;53.346;-6.296;2022-09-30T15:08:27;99211.47;;;19.62;49.01
64362;BME280;50685;53.346;-6.296;2022-09-30T15:10:56;99206.84;;;19.64;48.69
64362;BME280;50685;53.346;-6.296;2022-09-30T15:13:31;99206.69;;;19.54;48.76
64362;BME280;50685;53.346;-6.296;2022-09-30T15:15:57;99205.44;;;19.58;49.10
64362;BME280;50685;53.346;-6.296;2022-09-30T15:21:07;99208.31;;;19.44;49.70
64362;BME280;50685;53.346;-6.296;2022-09-30T15:23:37;99208.09;;;19.47;49.59
64362;BME280;50685;53.346;-6.296;2022-09-30T15:26:15;99200.84;;;19.36;49.61
64362;BME280;50685;53.346;-6.296;2022-09-30T15:28:57;99211.56;;;19.25;50.10
64362;BME280;50685;53.346;-6.296;2022-09-30T15:31:32;99217.38;;;18.82;51.62
64362;BME280;50685;53.346;-6.296;2022-09-30T15:34:05;99200.88;;;18.49;52.87
64362;BME280;50685;53.346;-6.296;2022-09-30T15:36:41;99199.97;;;18.24;53.71
64362;BME280;50685;53.346;-6.296;2022-09-30T15:43:01;99222.53;;;17.69;54.34
64362;BME280;50685;53.346;-6.296;2022-09-30T15:47:58;99238.38;;;17.31;55.51
64362;BME280;50685;53.346;-6.296;2022-09-30T15:53:15;99246.38;;;17.18;56.54
64362;BME280;50685;53.346;-6.296;2022-09-30T15:55:41;99247.63;;;17.13;57.15
64362;BME280;50685;53.346;-6.296;2022-09-30T15:58:53;99247.06;;;17.08;58.26
64362;BME280;50685;53.346;-6.296;2022-09-30T16:03:33;99217.22;;;16.99;60.05
64362;BME280;50685;53.346;-6.296;2022-09-30T16:06:11;99243.34;;;16.96;59.96
64362;BME280;50685;53.346;-6.296;2022-09-30T16:08:44;99256.06;;;16.92;60.03
64362;BME280;50685;53.346;-6.296;2022-09-30T16:14:08;99262.84;;;16.83;60.73
64362;BME280;50685;53.346;-6.296;2022-09-30T16:16:34;99266.88;;;16.76;61.49
64362;BME280;50685;53.346;-6.296;2022-09-30T16:19:02;99269.88;;;16.72;61.56
64362;BME280;50685;53.346;-6.296;2022-09-30T16:21:41;99269.19;;;16.68;62.38
64362;BME280;50685;53.346;-6.296;2022-09-30T16:24:57;99243.56;;;16.64;63.02
64362;BME280;50685;53.346;-6.296;2022-09-30T16:33:02;99261.44;;;16.49;64.54
64362;BME280;50685;53.346;-6.296;2022-09-30T16:35:30;99256.38;;;16.44;65.21
64362;BME280;50685;53.346;-6.296;2022-09-30T16:37:59;99260.09;;;16.42;64.73
64362;BME280;50685;53.346;-6.296;2022-09-30T16:40:28;99237.56;;;16.31;63.68
64362;BME280;50685;53.346;-6.296;2022-09-30T16:42:59;99240.41;;;16.28;63.91
64362;BME280;50685;53.346;-6.296;2022-09-30T16:45:35;99271.16;;;16.21;64.06
64362;BME280;50685;53.346;-6.296;2022-09-30T16:48:01;99274.22;;;16.15;64.37
64362;BME280;50685;53.346;-6.296;2022-09-30T16:53:01;99270.38;;;16.04;64.79
64362;BME280;50685;53.346;-6.296;2022-09-30T16:55:36;99269.69;;;16.01;65.59
64362;BME280;50685;53.346;-6.296;2022-09-30T16:58:12;99280.66;;;15.96;66.26
64362;BME280;50685;53.346;-6.296;2022-09-30T17:00:41;99278.28;;;15.92;67.04
64362;BME280;50685;53.346;-6.296;2022-09-30T17:03:11;99278.56;;;15.87;67.30
64362;BME280;50685;53.346;-6.296;2022-09-30T17:05:39;99277.94;;;15.82;67.69
64362;BME280;50685;53.346;-6.296;2022-09-30T17:08:10;99273.03;;;15.74;68.31
64362;BME280;50685;53.346;-6.296;2022-09-30T17:10:38;99249.25;;;15.69;68.52
64362;BME280;50685;53.346;-6.296;2022-09-30T17:13:06;99296.69;;;15.66;68.75
64362;BME280;50685;53.346;-6.296;2022-09-30T17:15:32;99296.97;;;15.61;69.12
64362;BME280;50685;53.346;-6.296;2022-09-30T17:18:05;99293.75;;;15.54;69.27
64362;BME280;50685;53.346;-6.296;2022-09-30T17:20:36;99286.03;;;15.50;69.12
64362;BME280;50685;53.346;-6.296;2022-09-30T17:23:11;99288.97;;;15.45;69.61
64362;BME280;50685;53.346;-6.296;2022-09-30T17:25:40;99279.38;;;15.41;69.68
64362;BME280;50685;53.346;-6.296;2022-09-30T17:28:08;99288.63;;;15.35;69.74
64362;BME280;50685;53.346;-6.296;2022-09-30T17:30:33;99287.25;;;15.28;69.93
64362;BME280;50685;53.346;-6.296;2022-09-30T17:33:02;99306.28;;;15.22;69.86
64362;BME280;50685;53.346;-6.296;2022-09-30T17:35:27;99298.63;;;15.16;69.36
64362;BME280;50685;53.346;-6.296;2022-09-30T17:38:00;99311.19;;;15.14;69.13
64362;BME280;50685;53.346;-6.296;2022-09-30T17:40:28;99312.31;;;15.09;69.00
64362;BME280;50685;53.346;-6.296;2022-09-30T17:43:18;99298.44;;;15.03;69.32
64362;BME280;50685;53.346;-6.296;2022-09-30T17:45:44;99327.03;;;15.01;69.54
64362;BME280;50685;53.346;-6.296;2022-09-30T17:48:18;99303.34;;;14.94;69.37
64362;BME280;50685;53.346;-6.296;2022-09-30T17:51:00;99335.63;;;14.90;69.26
64362;BME280;50685;53.346;-6.296;2022-09-30T17:53:25;99343.03;;;14.85;69.79
64362;BME280;50685;53.346;-6.296;2022-09-30T17:56:02;99352.22;;;14.79;70.22
64362;BME280;50685;53.346;-6.296;2022-09-30T17:58:36;99349.88;;;14.73;70.07
64362;BME280;50685;53.346;-6.296;2022-09-30T18:01:08;99345.66;;;14.69;69.77
64362;BME280;50685;53.346;-6.296;2022-09-30T18:03:41;99344.16;;;14.63;69.68
64362;BME280;50685;53.346;-6.296;2022-09-30T18:06:07;99357.72;;;14.58;69.70
64362;BME280;50685;53.346;-6.296;2022-09-30T18:08:36;99358.75;;;14.56;70.05
64362;BME280;50685;53.346;-6.296;2022-09-30T18:11:04;99355.63;;;14.48;69.93
64362;BME280;50685;53.346;-6.296;2022-09-30T18:13:32;99369.03;;;14.46;70.15
64362;BME280;50685;53.346;-6.296;2022-09-30T18:16:17;99364.03;;;14.40;69.99
64362;BME280;50685;53.346;-6.296;2022-09-30T18:18:45;99372.13;;;14.38;69.76
64362;BME280;50685;53.346;-6.296;2022-09-30T18:21:13;99370.47;;;14.36;69.68
64362;BME280;50685;53.346;-6.296;2022-09-30T18:23:41;99370.53;;;14.34;69.62
64362;BME280;50685;53.346;-6.296;2022-09-30T18:26:07;99384.84;;;14.33;69.64
64362;BME280;50685;53.346;-6.296;2022-09-30T18:28:39;99375.94;;;14.33;69.86
64362;BME280;50685;53.346;-6.296;2022-09-30T18:31:12;99379.72;;;14.28;69.82
64362;BME280;50685;53.346;-6.296;2022-09-30T18:33:44;99385.38;;;14.22;69.92
64362;BME280;50685;53.346;-6.296;2022-09-30T18:36:09;99395.25;;;14.20;70.49
64362;BME280;50685;53.346;-6.296;2022-09-30T18:38:37;99391.94;;;14.15;70.57
64362;BME280;50685;53.346;-6.296;2022-09-30T18:41:05;99395.56;;;14.14;70.57
64362;BME280;50685;53.346;-6.296;2022-09-30T18:43:31;99395.63;;;14.12;71.05
64362;BME280;50685;53.346;-6.296;2022-09-30T18:46:01;99398.44;;;14.09;70.77
64362;BME280;50685;53.346;-6.296;2022-09-30T18:48:27;99399.38;;;14.08;70.98
64362;BME280;50685;53.346;-6.296;2022-09-30T18:51:00;99388.72;;;14.08;71.33
64362;BME280;50685;53.346;-6.296;2022-09-30T18:53:25;99387.06;;;14.06;71.49
64362;BME280;50685;53.346;-6.296;2022-09-30T18:55:50;99387.16;;;14.04;71.51
64362;BME280;50685;53.346;-6.296;2022-09-30T18:58:21;99370.34;;;14.02;71.85
64362;BME280;50685;53.346;-6.296;2022-09-30T19:00:51;99370.53;;;13.99;71.97
64362;BME280;50685;53.346;-6.296;2022-09-30T19:03:27;99379.47;;;13.98;71.87
64362;BME280;50685;53.346;-6.296;2022-09-30T19:05:53;99368.00;;;13.96;72.50
64362;BME280;50685;53.346;-6.296;2022-09-30T19:08:18;99367.38;;;13.91;72.87
64362;BME280;50685;53.346;-6.296;2022-09-30T19:11:06;99371.16;;;13.87;73.76
64362;BME280;50685;53.346;-6.296;2022-09-30T19:13:38;99353.50;;;13.84;73.84
64362;BME280;50685;53.346;-6.296;2022-09-30T19:16:05;99352.63;;;13.84;74.17
64362;BME280;50685;53.346;-6.296;2022-09-30T19:18:34;99361.56;;;13.82;73.72
64362;BME280;50685;53.346;-6.296;2022-09-30T19:21:06;99358.88;;;13.82;73.16
64362;BME280;50685;53.346;-6.296;2022-09-30T19:23:32;99361.56;;;13.82;73.27
64362;BME280;50685;53.346;-6.296;2022-09-30T19:25:57;99369.72;;;13.79;72.81
64362;BME280;50685;53.346;-6.296;2022-09-30T19:28:30;99363.53;;;13.79;72.81
64362;BME280;50685;53.346;-6.296;2022-09-30T19:31:08;99356.47;;;13.78;72.36
64362;BME280;50685;53.346;-6.296;2022-09-30T19:33:37;99379.53;;;13.79;71.95
64362;BME280;50685;53.346;-6.296;2022-09-30T19:36:04;99372.50;;;13.76;72.79
64362;BME280;50685;53.346;-6.296;2022-09-30T19:38:30;99364.91;;;13.69;73.33
64362;BME280;50685;53.346;-6.296;2022-09-30T19:40:58;99380.19;;;13.65;74.04
64362;BME280;50685;53.346;-6.296;2022-09-30T19:43:38;99395.53;;;13.60;74.60
64362;BME280;50685;53.346;-6.296;2022-09-30T19:46:05;99392.22;;;13.55;75.25
64362;BME280;50685;53.346;-6.296;2022-09-30T19:48:31;99387.03;;;13.52;75.82
64362;BME280;50685;53.346;-6.296;2022-09-30T19:50:58;99398.84;;;13.46;75.86
64362;BME280;50685;53.346;-6.296;2022-09-30T19:53:24;99381.28;;;13.42;76.23
64362;BME280;50685;53.346;-6.296;2022-09-30T19:58:45;99411.72;;;13.36;76.62
64362;BME280;50685;53.346;-6.296;2022-09-30T20:04:02;99412.72;;;13.33;76.61
64362;BME280;50685;53.346;-6.296;2022-09-30T20:06:29;99410.91;;;13.34;76.49
64362;BME280;50685;53.346;-6.296;2022-09-30T20:08:55;99402.13;;;13.32;76.66
64362;BME280;50685;53.346;-6.296;2022-09-30T20:11:23;99409.25;;;13.31;76.39
64362;BME280;50685;53.346;-6.296;2022-09-30T20:13:52;99394.22;;;13.30;76.60
64362;BME280;50685;53.346;-6.296;2022-09-30T20:16:38;99409.47;;;13.27;77.06
64362;BME280;50685;53.346;-6.296;2022-09-30T20:19:10;99378.53;;;13.24;76.88
64362;BME280;50685;53.346;-6.296;2022-09-30T20:21:35;99410.56;;;13.23;77.33
64362;BME280;50685;53.346;-6.296;2022-09-30T20:24:13;99420.31;;;13.22;77.77
64362;BME280;50685;53.346;-6.296;2022-09-30T20:29:42;99408.66;;;13.25;77.52
64362;BME280;50685;53.346;-6.296;2022-09-30T20:32:15;99407.72;;;13.26;77.23
64362;BME280;50685;53.346;-6.296;2022-09-30T20:34:43;99437.81;;;13.28;77.15
64362;BME280;50685;53.346;-6.296;2022-09-30T20:37:09;99437.00;;;13.26;77.16
64362;BME280;50685;53.346;-6.296;2022-09-30T20:39:37;99443.22;;;13.26;76.96
64362;BME280;50685;53.346;-6.296;2022-09-30T20:42:11;99438.75;;;13.27;76.93
64362;BME280;50685;53.346;-6.296;2022-09-30T20:44:39;99452.06;;;13.27;77.28
64362;BME280;50685;53.346;-6.296;2022-09-30T20:47:06;99453.78;;;13.28;77.31
64362;BME280;50685;53.346;-6.296;2022-09-30T20:49:31;99456.47;;;13.28;77.45
64362;BME280;50685;53.346;-6.296;2022-09-30T20:52:14;99453.78;;;13.28;77.65
64362;BME280;50685;53.346;-6.296;2022-09-30T20:55:00;99435.28;;;13.25;77.39
64362;BME280;50685;53.346;-6.296;2022-09-30T20:57:26;99451.34;;;13.23;77.50
64362;BME280;50685;53.346;-6.296;2022-09-30T20:59:54;99458.59;;;13.20;77.28
64362;BME280;50685;53.346;-6.296;2022-09-30T21:02:22;99477.22;;;13.20;77.49
64362;BME280;50685;53.346;-6.296;2022-09-30T21:05:00;99443.72;;;13.15;77.28
64362;BME280;50685;53.346;-6.296;2022-09-30T21:07:34;99445.50;;;13.15;77.62
64362;BME280;50685;53.346;-6.296;2022-09-30T21:10:06;99475.72;;;13.14;77.45
64362;BME280;50685;53.346;-6.296;2022-09-30T21:12:32;99465.28;;;13.09;77.46
64362;BME280;50685;53.346;-6.296;2022-09-30T21:14:59;99454.72;;;13.08;77.54
64362;BME280;50685;53.346;-6.296;2022-09-30T21:17:28;99463.53;;;13.08;77.42
64362;BME280;50685;53.346;-6.296;2022-09-30T21:19:54;99499.06;;;13.07;77.45
64362;BME280;50685;53.346;-6.296;2022-09-30T21:22:34;99504.41;;;13.07;77.14
64362;BME280;50685;53.346;-6.296;2022-09-30T21:25:01;99503.56;;;13.07;77.37
64362;BME280;50685;53.346;-6.296;2022-09-30T21:27:28;99491.09;;;13.07;76.76
64362;BME280;50685;53.346;-6.296;2022-09-30T21:30:08;99502.66;;;13.06;76.97
64362;BME280;50685;53.346;-6.296;2022-09-30T21:32:42;99507.94;;;13.08;76.78
64362;BME280;50685;53.346;-6.296;2022-09-30T21:35:14;99499.22;;;13.04;76.70
64362;BME280;50685;53.346;-6.296;2022-09-30T21:37:42;99502.94;;;13.00;76.78
64362;BME280;50685;53.346;-6.296;2022-09-30T21:40:10;99527.91;;;12.97;77.07
64362;BME280;50685;53.346;-6.296;2022-09-30T21:42:36;99529.81;;;12.94;76.82
64362;BME280;50685;53.346;-6.296;2022-09-30T21:45:05;99507.78;;;12.90;77.17
64362;BME280;50685;53.346;-6.296;2022-09-30T21:47:41;99524.75;;;12.88;77.22
64362;BME280;50685;53.346;-6.296;2022-09-30T21:50:09;99519.59;;;12.84;77.41
64362;BME280;50685;53.346;-6.296;2022-09-30T21:52:42;99541.81;;;12.83;77.19
64362;BME280;50685;53.346;-6.296;2022-09-30T21:55:07;99547.25;;;12.80;77.39
64362;BME280;50685;53.346;-6.296;2022-09-30T21:57:42;99542.06;;;12.77;77.37
64362;BME280;50685;53.346;-6.296;2022-09-30T22:00:12;99559.03;;;12.75;77.21
64362;BME280;50685;53.346;-6.296;2022-09-30T22:03:00;99541.50;;;12.69;77.46
64362;BME280;50685;53.346;-6.296;2022-09-30T22:05:26;99546.97;;;12.66;77.78
64362;BME280;50685;53.346;-6.296;2022-09-30T22:07:53;99525.94;;;12.60;77.73
64362;BME280;50685;53.346;-6.296;2022-09-30T22:10:21;99549.94;;;12.58;77.85
64362;BME280;50685;53.346;-6.296;2022-09-30T22:12:47;99545.59;;;12.56;77.75
64362;BME280;50685;53.346;-6.296;2022-09-30T22:15:14;99546.53;;;12.54;77.60
64362;BME280;50685;53.346;-6.296;2022-09-30T22:17:44;99548.34;;;12.54;77.90
64362;BME280;50685;53.346;-6.296;2022-09-30T22:20:21;99542.13;;;12.53;77.86
64362;BME280;50685;53.346;-6.296;2022-09-30T22:22:46;99550.25;;;12.50;77.99
64362;BME280;50685;53.346;-6.296;2022-09-30T22:25:12;99560.16;;;12.47;77.73
64362;BME280;50685;53.346;-6.296;2022-09-30T22:27:39;99562.94;;;12.44;78.11
64362;BME280;50685;53.346;-6.296;2022-09-30T22:30:05;99558.59;;;12.41;77.99
64362;BME280;50685;53.346;-6.296;2022-09-30T22:32:36;99562.22;;;12.40;78.27
64362;BME280;50685;53.346;-6.296;2022-09-30T22:35:02;99556.94;;;12.38;78.27
64362;BME280;50685;53.346;-6.296;2022-09-30T22:37:48;99572.94;;;12.37;78.35
64362;BME280;50685;53.346;-6.296;2022-09-30T22:40:32;99581.00;;;12.35;78.58
64362;BME280;50685;53.346;-6.296;2022-09-30T22:43:00;99579.25;;;12.34;78.37
64362;BME280;50685;53.346;-6.296;2022-09-30T22:45:27;99579.34;;;12.33;78.35
64362;BME280;50685;53.346;-6.296;2022-09-30T22:50:41;99582.00;;;12.33;78.19
64362;BME280;50685;53.346;-6.296;2022-09-30T22:53:06;99589.03;;;12.34;78.33
64362;BME280;50685;53.346;-6.296;2022-09-30T22:55:32;99587.31;;;12.33;78.20
64362;BME280;50685;53.346;-6.296;2022-09-30T22:57:58;99595.53;;;12.27;78.27
64362;BME280;50685;53.346;-6.296;2022-09-30T23:00:23;99587.34;;;12.31;78.14
64362;BME280;50685;53.346;-6.296;2022-09-30T23:02:48;99593.63;;;12.30;78.21
64362;BME280;50685;53.346;-6.296;2022-09-30T23:05:19;99597.13;;;12.31;78.38
64362;BME280;50685;53.346;-6.296;2022-09-30T23:07:47;99596.19;;;12.32;78.11
64362;BME280;50685;53.346;-6.296;2022-09-30T23:10:14;99599.72;;;12.32;78.26
64362;BME280;50685;53.346;-6.296;2022-09-30T23:12:40;99600.59;;;12.33;78.28
64362;BME280;50685;53.346;-6.296;2022-09-30T23:15:06;99608.50;;;12.34;78.43
64362;BME280;50685;53.346;-6.296;2022-09-30T23:17:31;99612.97;;;12.34;78.42
64362;BME280;50685;53.346;-6.296;2022-09-30T23:19:57;99616.56;;;12.33;78.43
64362;BME280;50685;53.346;-6.296;2022-09-30T23:22:22;99619.22;;;12.33;78.53
64362;BME280;50685;53.346;-6.296;2022-09-30T23:24:48;99617.41;;;12.33;78.61
64362;BME280;50685;53.346;-6.296;2022-09-30T23:27:16;99610.31;;;12.34;78.70
64362;BME280;50685;53.346;-6.296;2022-09-30T23:29:41;99620.94;;;12.34;78.34
64362;BME280;50685;53.346;-6.296;2022-09-30T23:32:06;99625.28;;;12.36;78.54
64362;BME280;50685;53.346;-6.296;2022-09-30T23:34:32;99608.34;;;12.39;78.27
64362;BME280;50685;53.346;-6.296;2022-09-30T23:36:57;99623.28;;;12.42;78.18
64362;BME280;50685;53.346;-6.296;2022-09-30T23:39:22;99625.06;;;12.41;78.10
64362;BME280;50685;53.346;-6.296;2022-09-30T23:41:50;99618.16;;;12.37;78.65
64362;BME280;50685;53.346;-6.296;2022-09-30T23:44:21;99636.84;;;12.35;78.17
64362;BME280;50685;53.346;-6.296;2022-09-30T23:46:54;99627.19;;;12.33;77.73
64362;BME280;50685;53.346;-6.296;2022-09-30T23:49:38;99633.41;;;12.32;77.66
64362;BME280;50685;53.346;-6.296;2022-09-30T23:52:07;99646.78;;;12.30;77.72
64362;BME280;50685;53.346;-6.296;2022-09-30T23:54:35;99636.16;;;12.30;77.39
64362;BME280;50685;53.346;-6.296;2022-09-30T23:57:01;99656.53;;;12.30;76.97
64362;BME280;50685;53.346;-6.296;2022-09-30T23:59:29;99660.19;;;12.27;77.23
